Time,TemperatureF,DewpointF,PressureIn,WindDirection,WindDirectionDegrees,WindSpeedMPH,WindSpeedGustMPH,Humidity,HourlyPrecipIn,Conditions,Clouds,dailyrainin,SoftwareType,DateUTC
2013-09-02 00:00:00,65.3,61.0,29.87,SE,135,0.0,0.0,86,0.00,RA,,0.00,WeatherDisplay:10.37,2013-09-02 04:00:00,
2013-09-02 00:01:00,65.3,61.0,29.87,SE,135,0.0,0.0,86,0.00,RA,,0.00,WeatherDisplay:10.37,2013-09-02 04:01:00,
2013-09-02 00:02:00,65.3,61.0,29.86,SE,135,0.0,0.0,86,0.00,RA,,0.00,WeatherDisplay:10.37,2013-09-02 04:02:00,
2013-09-02 00:03:00,65.3,61.0,29.86,SE,135,0.0,0.0,86,0.00,RA,,0.00,WeatherDisplay:10.37,2013-09-02 04:03:00,
2013-09-02 00:04:00,65.1,60.8,29.87,SE,135,0.0,0.0,86,0.00,RA,,0.00,WeatherDisplay:10.37,2013-09-02 04:04:00,
2013-09-02 00:05:00,65.1,60.8,29.87,SE,135,0.0,0.0,86,0.00,RA,,0.00,WeatherDisplay:10.37,2013-09-02 04:05:00,
2013-09-02 00:10:00,65.1,60.8,29.87,SE,135,0.0,0.0,86,0.00,CLR,,0.00,WeatherDisplay:10.37,2013-09-02 04:10:00,
2013-09-02 00:15:00,65.1,60.5,29.87,SE,135,0.0,0.0,85,0.00,CLR,,0.00,WeatherDisplay:10.37,2013-09-02 04:15:00,
2013-09-02 00:20:00,64.9,60.3,29.87,SE,135,0.0,0.0,85,0.00,CLR,,0.00,WeatherDisplay:10.37,2013-09-02 04:20:00,
2013-09-02 00:25:00,64.9,60.3,29.86,SE,135,0.0,0.0,85,0.00,CLR,,0.00,WeatherDisplay:10.37,2013-09-02 04:25:00,
2013-09-02 00:30:00,64.8,60.1,29.86,SE,135,0.0,0.0,85,0.00,CLR,,0.00,WeatherDisplay:10.37,2013-09-02 04:30:00,
2013-09-02 00:35:00,64.8,60.1,29.86,SE,135,0.0,0.0,85,0.00,CLR,,0.00,WeatherDisplay:10.37,2013-09-02 04:35:00,
2013-09-02 00:40:00,64.8,60.1,29.86,SE,135,0.0,0.0,85,0.00,CLR,,0.00,WeatherDisplay:10.37,2013-09-02 04:40:00,
2013-09-02 00:45:00,64.8,60.1,29.86,SE,135,0.0,0.0,85,0.00,CLR,,0.00,WeatherDisplay:10.37,2013-09-02 04:45:00,
2013-09-02 00:50:00,64.8,60.1,29.87,SE,135,0.0,0.0,85,0.00,CLR,,0.00,WeatherDisplay:10.37,2013-09-02 04:50:00,
2013-09-02 00:55:00,64.8,60.1,29.87,SE,135,0.0,0.0,85,0.00,CLR,,0.00,WeatherDisplay:10.37,2013-09-02 04:55:00,
2013-09-02 01:00:00,64.8,60.1,29.87,SE,135,0.0,0.0,85,0.00,CLR,,0.00,WeatherDisplay:10.37,2013-09-02 05:00:00,
2013-09-02 01:05:00,64.8,60.1,29.87,SE,135,0.0,0.0,85,0.00,CLR,,0.00,WeatherDisplay:10.37,2013-09-02 05:05:00,
2013-09-02 01:10:00,64.8,60.1,29.87,SE,135,0.0,0.0,85,0.00,CLR,,0.00,WeatherDisplay:10.37,2013-09-02 05:10:00,
2013-09-02 01:15:00,64.8,60.1,29.87,SE,135,0.0,0.0,85,0.00,CLR,,0.00,WeatherDisplay:10.37,2013-09-02 05:15:00,
2013-09-02 01:20:00,64.6,60.3,29.86,SE,135,0.0,0.0,86,0.00,CLR,,0.00,WeatherDisplay:10.37,2013-09-02 05:20:00,
2013-09-02 01:25:00,64.6,60.3,29.87,SE,135,0.9,1.1,86,0.00,CLR,,0.00,WeatherDisplay:10.37,2013-09-02 05:25:00,
2013-09-02 01:30:00,64.4,60.1,29.86,SE,135,0.9,1.1,86,0.00,CLR,,0.00,WeatherDisplay:10.37,2013-09-02 05:30:00,
2013-09-02 01:35:00,64.4,60.1,29.85,SE,135,0.6,0.6,86,0.00,CLR,,0.00,WeatherDisplay:10.37,2013-09-02 05:35:00,
2013-09-02 01:40:00,64.2,59.9,29.86,SE,135,0.0,0.0,86,0.00,CLR,,0.00,WeatherDisplay:10.37,2013-09-02 05:40:00,
2013-09-02 01:45:00,64.2,59.9,29.85,SE,135,0.0,0.0,86,0.00,CLR,,0.00,WeatherDisplay:10.37,2013-09-02 05:45:00,
2013-09-02 01:50:00,64.2,59.9,29.85,SE,135,0.0,0.0,86,0.00,CLR,,0.00,WeatherDisplay:10.37,2013-09-02 05:50:00,
2013-09-02 01:55:00,63.9,59.6,29.85,SE,135,0.0,0.0,86,0.00,CLR,,0.00,WeatherDisplay:10.37,2013-09-02 05:55:00,
2013-09-02 02:00:00,63.9,59.6,29.86,SE,135,0.0,0.0,86,0.00,CLR,,0.00,WeatherDisplay:10.37,2013-09-02 06:00:00,
2013-09-02 02:05:00,64.0,59.8,29.85,SE,135,0.0,0.0,86,0.00,CLR,,0.00,WeatherDisplay:10.37,2013-09-02 06:05:00,
2013-09-02 02:11:00,64.0,59.8,29.85,SE,135,0.0,0.0,86,0.00,CLR,,0.00,WeatherDisplay:10.37,2013-09-02 06:11:00,
2013-09-02 02:16:00,64.0,59.8,29.86,SE,135,0.0,0.0,86,0.00,CLR,,0.00,WeatherDisplay:10.37,2013-09-02 06:16:00,
2013-09-02 02:21:00,64.0,59.8,29.85,SE,135,0.0,0.0,86,0.00,CLR,,0.00,WeatherDisplay:10.37,2013-09-02 06:21:00,
2013-09-02 02:26:00,64.0,59.8,29.85,SE,135,0.0,0.0,86,0.00,CLR,,0.00,WeatherDisplay:10.37,2013-09-02 06:26:00,
2013-09-02 02:31:00,64.0,59.8,29.85,SE,135,0.0,0.0,86,0.00,CLR,,0.00,WeatherDisplay:10.37,2013-09-02 06:31:00,
2013-09-02 02:36:00,64.0,59.8,29.85,SE,135,0.0,0.0,86,0.00,CLR,,0.00,WeatherDisplay:10.37,2013-09-02 06:36:00,
2013-09-02 02:41:00,63.9,59.6,29.85,SE,135,0.0,0.0,86,0.00,CLR,,0.00,WeatherDisplay:10.37,2013-09-02 06:41:00,
2013-09-02 02:46:00,63.7,59.4,29.85,SE,135,0.3,0.3,86,0.00,CLR,,0.00,WeatherDisplay:10.37,2013-09-02 06:46:00,
2013-09-02 02:51:00,63.9,59.6,29.85,SE,135,0.0,0.0,86,0.00,CLR,,0.00,WeatherDisplay:10.37,2013-09-02 06:51:00,
2013-09-02 02:56:00,63.9,59.6,29.85,SE,135,0.0,0.0,86,0.00,CLR,,0.00,WeatherDisplay:10.37,2013-09-02 06:56:00,
2013-09-02 03:01:00,63.9,59.6,29.85,SE,135,0.0,0.0,86,0.00,CLR,,0.00,WeatherDisplay:10.37,2013-09-02 07:01:00,
2013-09-02 03:06:00,64.0,59.8,29.85,SE,135,0.0,0.0,86,0.00,CLR,,0.00,WeatherDisplay:10.37,2013-09-02 07:06:00,
2013-09-02 03:11:00,64.0,59.8,29.86,SE,135,0.0,0.0,86,0.00,CLR,,0.00,WeatherDisplay:10.37,2013-09-02 07:11:00,
2013-09-02 03:16:00,64.0,59.8,29.85,SE,135,0.0,0.0,86,0.00,CLR,,0.00,WeatherDisplay:10.37,2013-09-02 07:16:00,
2013-09-02 03:21:00,63.7,59.7,29.85,SE,135,0.0,0.0,87,0.00,CLR,,0.00,WeatherDisplay:10.37,2013-09-02 07:21:00,
2013-09-02 03:26:00,63.9,59.9,29.85,SE,135,0.0,0.0,87,0.00,CLR,,0.00,WeatherDisplay:10.37,2013-09-02 07:26:00,
2013-09-02 03:31:00,63.9,59.9,29.85,SE,135,0.0,0.0,87,0.00,CLR,,0.00,WeatherDisplay:10.37,2013-09-02 07:31:00,
2013-09-02 03:36:00,63.9,59.9,29.86,SE,135,0.6,1.1,87,0.00,CLR,,0.00,WeatherDisplay:10.37,2013-09-02 07:36:00,
2013-09-02 03:41:00,63.9,59.9,29.85,SE,135,0.9,1.1,87,0.00,CLR,,0.00,WeatherDisplay:10.37,2013-09-02 07:41:00,
2013-09-02 03:46:00,64.0,60.1,29.85,SSE,158,0.9,2.3,87,0.00,CLR,,0.00,WeatherDisplay:10.37,2013-09-02 07:46:00,
2013-09-02 03:51:00,64.0,60.1,29.85,SSE,158,0.9,1.1,87,0.00,CLR,,0.00,WeatherDisplay:10.37,2013-09-02 07:51:00,
2013-09-02 03:56:00,64.0,60.1,29.85,SSE,158,0.0,0.0,87,0.00,CLR,,0.00,WeatherDisplay:10.37,2013-09-02 07:56:00,
2013-09-02 04:01:00,64.0,60.1,29.86,SE,135,2.4,2.4,87,0.00,CLR,,0.00,WeatherDisplay:10.37,2013-09-02 08:01:00,
2013-09-02 04:06:00,64.2,60.3,29.86,SSE,158,1.5,2.3,87,0.00,CLR,,0.00,WeatherDisplay:10.37,2013-09-02 08:06:00,
2013-09-02 04:11:00,64.4,60.4,29.84,SSE,158,2.4,2.4,87,0.00,CLR,,0.00,WeatherDisplay:10.37,2013-09-02 08:11:00,
2013-09-02 04:16:00,64.4,60.4,29.84,SE,135,2.4,2.4,87,0.00,CLR,,0.00,WeatherDisplay:10.37,2013-09-02 08:16:00,
2013-09-02 04:21:00,64.4,60.4,29.84,SSE,158,0.6,2.3,87,0.00,CLR,,0.00,WeatherDisplay:10.37,2013-09-02 08:21:00,
2013-09-02 04:26:00,64.4,60.4,29.84,SSE,158,0.0,0.0,87,0.00,CLR,,0.00,WeatherDisplay:10.37,2013-09-02 08:26:00,
2013-09-02 04:31:00,64.4,60.4,29.84,SSE,158,0.0,0.0,87,0.00,CLR,,0.00,WeatherDisplay:10.37,2013-09-02 08:31:00,
2013-09-02 04:36:00,64.2,60.3,29.84,SSE,158,1.2,1.2,87,0.00,CLR,,0.00,WeatherDisplay:10.37,2013-09-02 08:36:00,
2013-09-02 04:41:00,64.0,60.1,29.85,SSE,158,0.0,0.0,87,0.00,CLR,,0.00,WeatherDisplay:10.37,2013-09-02 08:41:00,
2013-09-02 04:46:00,64.0,60.1,29.85,SSE,158,0.0,0.0,87,0.00,CLR,,0.00,WeatherDisplay:10.37,2013-09-02 08:46:00,
2013-09-02 04:51:00,63.9,59.9,29.85,SSE,158,0.6,1.1,87,0.00,CLR,,0.00,WeatherDisplay:10.37,2013-09-02 08:51:00,
2013-09-02 04:56:00,63.9,59.9,29.85,SSE,158,0.0,1.1,87,0.00,CLR,,0.00,WeatherDisplay:10.37,2013-09-02 08:56:00,
2013-09-02 05:01:00,63.9,59.9,29.86,SSE,158,0.0,0.0,87,0.00,CLR,,0.00,WeatherDisplay:10.37,2013-09-02 09:01:00,
2013-09-02 05:06:00,63.9,59.9,29.86,SSE,158,0.0,0.0,87,0.00,CLR,,0.00,WeatherDisplay:10.37,2013-09-02 09:06:00,
2013-09-02 05:11:00,63.9,59.9,29.86,SSE,158,0.0,0.0,87,0.00,CLR,,0.00,WeatherDisplay:10.37,2013-09-02 09:11:00,
2013-09-02 05:16:00,63.9,59.9,29.87,SSE,158,0.0,0.0,87,0.00,CLR,,0.00,WeatherDisplay:10.37,2013-09-02 09:16:00,
2013-09-02 05:21:00,63.9,59.9,29.87,SSE,158,0.0,0.0,87,0.00,CLR,,0.00,WeatherDisplay:10.37,2013-09-02 09:21:00,
2013-09-02 05:26:00,63.9,59.9,29.86,SSE,158,0.0,0.0,87,0.00,CLR,,0.00,WeatherDisplay:10.37,2013-09-02 09:26:00,
2013-09-02 05:31:00,63.9,59.9,29.86,SSE,158,0.0,0.0,87,0.00,CLR,,0.00,WeatherDisplay:10.37,2013-09-02 09:31:00,
2013-09-02 05:36:00,63.9,59.9,29.86,SSE,158,1.2,1.2,87,0.00,CLR,,0.00,WeatherDisplay:10.37,2013-09-02 09:36:00,
2013-09-02 05:41:00,63.9,59.9,29.86,SSE,158,0.0,0.0,87,0.00,CLR,,0.00,WeatherDisplay:10.37,2013-09-02 09:41:00,
2013-09-02 05:46:00,63.9,59.9,29.86,SSE,158,0.0,0.0,87,0.00,CLR,,0.00,WeatherDisplay:10.37,2013-09-02 09:46:00,
2013-09-02 05:51:00,63.7,59.7,29.86,SSE,158,0.0,0.0,87,0.00,CLR,,0.00,WeatherDisplay:10.37,2013-09-02 09:51:00,
2013-09-02 05:56:00,63.7,59.7,29.86,SSE,158,0.0,0.0,87,0.00,CLR,,0.00,WeatherDisplay:10.37,2013-09-02 09:56:00,
2013-09-02 06:01:00,63.9,59.9,29.85,SSE,158,0.0,0.0,87,0.00,CLR,,0.00,WeatherDisplay:10.37,2013-09-02 10:01:00,
2013-09-02 06:06:00,63.9,59.9,29.85,SSE,158,0.0,0.0,87,0.00,CLR,,0.00,WeatherDisplay:10.37,2013-09-02 10:06:00,
2013-09-02 06:11:00,63.7,59.7,29.85,SSE,158,0.0,0.0,87,0.00,CLR,,0.00,WeatherDisplay:10.37,2013-09-02 10:11:00,
2013-09-02 06:16:00,63.7,59.7,29.85,SSE,158,0.0,0.0,87,0.00,CLR,,0.00,WeatherDisplay:10.37,2013-09-02 10:16:00,
2013-09-02 06:21:00,63.7,59.7,29.85,SSE,158,0.0,0.0,87,0.00,CLR,,0.00,WeatherDisplay:10.37,2013-09-02 10:21:00,
2013-09-02 06:26:00,63.7,59.7,29.85,SSE,158,0.0,0.0,87,0.00,CLR,,0.00,WeatherDisplay:10.37,2013-09-02 10:26:00,
2013-09-02 06:31:00,63.7,59.7,29.85,SSE,158,0.0,0.0,87,0.00,CLR,,0.00,WeatherDisplay:10.37,2013-09-02 10:31:00,
2013-09-02 06:36:00,63.7,59.7,29.85,SSE,158,0.0,0.0,87,0.00,CLR,,0.00,WeatherDisplay:10.37,2013-09-02 10:36:00,
2013-09-02 06:41:00,63.7,59.7,29.85,SSE,158,0.0,0.0,87,0.00,CLR,,0.00,WeatherDisplay:10.37,2013-09-02 10:41:00,
2013-09-02 06:46:00,63.7,59.7,29.85,SSE,158,0.6,1.1,87,0.00,CLR,,0.00,WeatherDisplay:10.37,2013-09-02 10:46:00,
2013-09-02 06:51:00,63.7,59.7,29.85,SSE,158,0.6,1.1,87,0.00,CLR,,0.00,WeatherDisplay:10.37,2013-09-02 10:51:00,
2013-09-02 06:56:00,63.5,59.6,29.85,SE,135,0.6,1.1,87,0.00,CLR,,0.00,WeatherDisplay:10.37,2013-09-02 10:56:00,
2013-09-02 07:01:00,63.3,59.4,29.84,SSW,202,0.3,1.1,87,0.00,CLR,,0.00,WeatherDisplay:10.37,2013-09-02 11:01:00,
2013-09-02 07:06:00,63.3,59.4,29.85,SSW,202,0.0,0.0,87,0.00,CLR,,0.00,WeatherDisplay:10.37,2013-09-02 11:06:00,
2013-09-02 07:11:00,63.1,59.2,29.85,SSW,202,0.0,0.0,87,0.00,CLR,,0.00,WeatherDisplay:10.37,2013-09-02 11:11:00,
2013-09-02 07:16:00,63.3,59.4,29.85,SSW,202,0.0,0.0,87,0.00,CLR,,0.00,WeatherDisplay:10.37,2013-09-02 11:16:00,
2013-09-02 07:21:00,63.5,59.6,29.86,SSW,202,0.0,0.0,87,0.00,CLR,,0.00,WeatherDisplay:10.37,2013-09-02 11:21:00,
2013-09-02 07:26:00,63.7,59.7,29.86,SSW,202,0.9,0.9,87,0.00,CLR,,0.00,WeatherDisplay:10.37,2013-09-02 11:26:00,
2013-09-02 07:31:00,64.0,60.1,29.86,SE,135,2.1,2.3,87,0.00,CLR,,0.00,WeatherDisplay:10.37,2013-09-02 11:31:00,
2013-09-02 07:36:00,64.4,60.4,29.86,SSE,158,0.6,2.3,87,0.00,CLR,,0.00,WeatherDisplay:10.37,2013-09-02 11:36:00,
2013-09-02 07:41:00,64.6,60.6,29.86,SSE,158,0.0,0.0,87,0.00,CLR,,0.00,WeatherDisplay:10.37,2013-09-02 11:41:00,
2013-09-02 07:46:00,64.4,60.4,29.86,SSE,158,0.0,0.0,87,0.00,CLR,,0.00,WeatherDisplay:10.37,2013-09-02 11:46:00,
2013-09-02 07:51:00,64.6,60.6,29.86,SSE,158,0.0,0.0,87,0.00,CLR,,0.00,WeatherDisplay:10.37,2013-09-02 11:51:00,
2013-09-02 07:56:00,64.8,60.8,29.86,SSE,158,0.3,0.3,87,0.00,CLR,,0.00,WeatherDisplay:10.37,2013-09-02 11:56:00,
2013-09-02 08:01:00,65.1,61.2,29.86,SSE,158,0.0,0.0,87,0.00,CLR,,0.00,WeatherDisplay:10.37,2013-09-02 12:01:00,
2013-09-02 08:06:00,65.1,61.2,29.86,SSE,158,0.0,0.0,87,0.00,CLR,,0.00,WeatherDisplay:10.37,2013-09-02 12:06:00,
2013-09-02 08:11:00,65.3,61.7,29.86,SSE,158,0.9,1.1,88,0.00,CLR,,0.00,WeatherDisplay:10.37,2013-09-02 12:11:00,
2013-09-02 08:16:00,65.5,61.8,29.86,SSE,158,0.3,0.3,88,0.00,CLR,,0.00,WeatherDisplay:10.37,2013-09-02 12:16:00,
2013-09-02 08:21:00,65.8,62.2,29.86,SSE,158,0.0,0.0,88,0.00,CLR,,0.00,WeatherDisplay:10.37,2013-09-02 12:21:00,
2013-09-02 08:26:00,65.8,62.2,29.86,SSE,158,0.0,0.0,88,0.00,CLR,,0.00,WeatherDisplay:10.37,2013-09-02 12:26:00,
2013-09-02 08:31:00,65.8,62.2,29.86,SSE,158,0.0,0.0,88,0.00,CLR,,0.00,WeatherDisplay:10.37,2013-09-02 12:31:00,
2013-09-02 08:36:00,66.2,62.5,29.86,SSE,158,0.3,0.3,88,0.00,CLR,,0.00,WeatherDisplay:10.37,2013-09-02 12:36:00,
2013-09-02 08:41:00,66.2,62.5,29.87,SSE,158,0.0,0.0,88,0.00,CLR,,0.00,WeatherDisplay:10.37,2013-09-02 12:41:00,
2013-09-02 08:46:00,66.4,62.7,29.87,SSE,158,0.6,1.1,88,0.00,CLR,,0.00,WeatherDisplay:10.37,2013-09-02 12:46:00,
2013-09-02 08:51:00,66.6,62.9,29.87,SSE,158,0.0,0.0,88,0.00,CLR,,0.00,WeatherDisplay:10.37,2013-09-02 12:51:00,
2013-09-02 08:56:00,66.9,63.2,29.87,SSW,202,0.0,0.0,88,0.00,CLR,,0.00,WeatherDisplay:10.37,2013-09-02 12:56:00,
2013-09-02 09:01:00,67.3,63.6,29.87,West,270,0.0,0.0,88,0.00,CLR,,0.00,WeatherDisplay:10.37,2013-09-02 13:01:00,
2013-09-02 09:06:00,67.5,63.8,29.87,WSW,248,2.4,2.4,88,0.00,CLR,,0.00,WeatherDisplay:10.37,2013-09-02 13:06:00,
2013-09-02 09:11:00,67.8,64.1,29.87,WNW,292,0.6,2.3,88,0.00,CLR,,0.00,WeatherDisplay:10.37,2013-09-02 13:11:00,
2013-09-02 09:16:00,67.8,64.1,29.87,West,270,1.2,1.2,88,0.00,CLR,,0.00,WeatherDisplay:10.37,2013-09-02 13:16:00,
2013-09-02 09:21:00,68.0,64.3,29.87,NW,315,1.8,1.8,88,0.00,CLR,,0.00,WeatherDisplay:10.37,2013-09-02 13:21:00,
2013-09-02 09:26:00,68.2,64.5,29.87,WNW,292,0.0,2.3,88,0.00,CLR,,0.00,WeatherDisplay:10.37,2013-09-02 13:26:00,
2013-09-02 09:31:00,68.4,64.7,29.86,West,270,1.8,1.8,88,0.00,CLR,,0.00,WeatherDisplay:10.37,2013-09-02 13:31:00,
2013-09-02 09:36:00,68.5,64.8,29.86,WSW,248,0.9,2.3,88,0.00,CLR,,0.00,WeatherDisplay:10.37,2013-09-02 13:36:00,
2013-09-02 09:41:00,68.9,65.2,29.86,WNW,292,1.2,1.2,88,0.00,CLR,,0.00,WeatherDisplay:10.37,2013-09-02 13:41:00,
2013-09-02 09:46:00,69.4,65.7,29.86,West,270,1.5,1.5,88,0.00,CLR,,0.00,WeatherDisplay:10.37,2013-09-02 13:46:00,
2013-09-02 09:51:00,69.6,65.9,29.86,West,270,2.1,2.3,88,0.00,CLR,,0.00,WeatherDisplay:10.37,2013-09-02 13:51:00,
2013-09-02 09:56:00,70.0,66.3,29.86,WNW,292,1.5,2.3,88,0.00,CLR,,0.00,WeatherDisplay:10.37,2013-09-02 13:56:00,
2013-09-02 10:01:00,70.0,65.9,29.86,WNW,292,2.4,2.4,87,0.00,CLR,,0.00,WeatherDisplay:10.37,2013-09-02 14:01:00,
2013-09-02 10:06:00,70.2,66.1,29.86,West,270,4.6,4.6,87,0.00,CLR,,0.00,WeatherDisplay:10.37,2013-09-02 14:06:00,
2013-09-02 10:11:00,70.3,66.0,29.86,WNW,292,2.1,4.6,86,0.00,CLR,,0.00,WeatherDisplay:10.37,2013-09-02 14:11:00,
2013-09-02 10:16:00,70.5,66.1,29.86,NW,315,2.4,2.4,86,0.00,CLR,,0.00,WeatherDisplay:10.37,2013-09-02 14:16:00,
2013-09-02 10:21:00,70.9,66.5,29.86,WNW,292,0.6,1.1,86,0.00,CLR,,0.00,WeatherDisplay:10.37,2013-09-02 14:21:00,
2013-09-02 10:26:00,70.9,66.5,29.86,NW,315,2.4,2.4,86,0.00,CLR,,0.00,WeatherDisplay:10.37,2013-09-02 14:26:00,
2013-09-02 10:31:00,71.2,66.5,29.86,NW,315,4.3,4.3,85,0.00,CLR,,0.00,WeatherDisplay:10.37,2013-09-02 14:31:00,
2013-09-02 10:36:00,71.2,66.5,29.85,West,270,2.4,4.6,85,0.00,CLR,,0.00,WeatherDisplay:10.37,2013-09-02 14:36:00,
2013-09-02 10:41:00,71.2,66.5,29.86,WNW,292,3.1,3.5,85,0.00,CLR,,0.00,WeatherDisplay:10.37,2013-09-02 14:41:00,
2013-09-02 10:46:00,71.4,66.7,29.86,WNW,292,0.9,1.1,85,0.00,CLR,,0.00,WeatherDisplay:10.37,2013-09-02 14:46:00,
2013-09-02 10:51:00,72.1,67.0,29.86,West,270,6.1,6.1,84,0.00,CLR,,0.00,WeatherDisplay:10.37,2013-09-02 14:51:00,
2013-09-02 10:56:00,72.3,66.9,29.85,West,270,6.1,6.1,83,0.00,CLR,,0.00,WeatherDisplay:10.37,2013-09-02 14:56:00,
2013-09-02 11:01:00,73.0,67.9,29.84,NW,315,1.8,3.5,84,0.00,CLR,,0.00,WeatherDisplay:10.37,2013-09-02 15:01:00,
2013-09-02 11:06:00,73.0,67.6,29.84,WSW,248,3.4,5.8,83,0.00,CLR,,0.00,WeatherDisplay:10.37,2013-09-02 15:06:00,
2013-09-02 11:11:00,73.0,67.6,29.84,WSW,248,4.3,4.6,83,0.00,CLR,,0.00,WeatherDisplay:10.37,2013-09-02 15:11:00,
2013-09-02 11:16:00,73.0,67.6,29.84,West,270,5.2,6.9,83,0.00,CLR,,0.00,WeatherDisplay:10.37,2013-09-02 15:16:00,
2013-09-02 11:21:00,73.4,67.6,29.85,West,270,4.6,4.6,82,0.00,CLR,,0.00,WeatherDisplay:10.37,2013-09-02 15:21:00,
2013-09-02 11:26:00,73.2,67.4,29.85,WNW,292,4.3,4.6,82,0.00,CLR,,0.00,WeatherDisplay:10.37,2013-09-02 15:26:00,
2013-09-02 11:31:00,73.4,67.6,29.85,NNE,22,2.8,5.8,82,0.00,CLR,,0.00,WeatherDisplay:10.37,2013-09-02 15:31:00,
2013-09-02 11:36:00,73.6,67.7,29.85,NW,315,3.4,3.5,82,0.00,CLR,,0.00,WeatherDisplay:10.37,2013-09-02 15:36:00,
2013-09-02 11:41:00,73.8,67.6,29.86,NW,315,7.0,7.0,81,0.00,CLR,,0.00,WeatherDisplay:10.37,2013-09-02 15:41:00,
2013-09-02 11:46:00,73.8,67.6,29.86,NW,315,3.4,3.5,81,0.00,CLR,,0.00,WeatherDisplay:10.37,2013-09-02 15:46:00,
2013-09-02 11:51:00,73.9,67.7,29.87,WSW,248,4.6,4.6,81,0.00,CLR,,0.00,WeatherDisplay:10.37,2013-09-02 15:51:00,
2013-09-02 11:56:00,74.7,68.4,29.87,NNE,22,3.1,4.6,81,0.00,CLR,,0.00,WeatherDisplay:10.37,2013-09-02 15:56:00,
2013-09-02 12:01:00,74.7,68.1,29.87,NW,315,2.8,3.5,80,0.00,CLR,,0.00,WeatherDisplay:10.37,2013-09-02 16:01:00,
2013-09-02 12:06:00,74.8,67.9,29.88,NW,315,1.5,2.3,79,0.00,CLR,,0.00,WeatherDisplay:10.37,2013-09-02 16:06:00,
2013-09-02 12:11:00,75.2,68.2,29.88,WNW,292,3.7,3.7,79,0.00,CLR,,0.00,WeatherDisplay:10.37,2013-09-02 16:11:00,
2013-09-02 12:16:00,75.7,68.4,29.88,WSW,248,7.0,7.0,78,0.00,CLR,,0.00,WeatherDisplay:10.37,2013-09-02 16:16:00,
2013-09-02 12:21:00,75.7,68.0,29.88,WSW,248,2.1,2.3,77,0.00,CLR,,0.00,WeatherDisplay:10.37,2013-09-02 16:21:00,
2013-09-02 12:26:00,75.4,67.3,29.88,WSW,248,6.7,6.9,76,0.00,CLR,,0.00,WeatherDisplay:10.37,2013-09-02 16:26:00,
2013-09-02 12:31:00,75.6,67.8,29.88,West,270,3.1,3.5,77,0.00,CLR,,0.00,WeatherDisplay:10.37,2013-09-02 16:31:00,
2013-09-02 12:36:00,75.6,67.5,29.88,NW,315,6.1,6.1,76,0.00,CLR,,0.00,WeatherDisplay:10.37,2013-09-02 16:36:00,
2013-09-02 12:41:00,75.9,67.8,29.88,WSW,248,5.2,5.8,76,0.00,CLR,,0.00,WeatherDisplay:10.37,2013-09-02 16:41:00,
2013-09-02 12:46:00,76.3,67.8,29.88,SW,225,3.7,3.7,75,0.00,CLR,,0.00,WeatherDisplay:10.37,2013-09-02 16:46:00,
2013-09-02 12:51:00,76.3,67.8,29.88,WSW,248,4.0,4.6,75,0.00,CLR,,0.00,WeatherDisplay:10.37,2013-09-02 16:51:00,
2013-09-02 12:56:00,76.6,68.5,29.87,West,270,7.0,7.0,76,0.00,CLR,,0.00,WeatherDisplay:10.37,2013-09-02 16:56:00,
2013-09-02 13:01:00,77.0,68.5,29.87,WNW,292,4.0,6.9,75,0.00,CLR,,0.00,WeatherDisplay:10.37,2013-09-02 17:01:00,
2013-09-02 13:06:00,76.6,67.7,29.87,West,270,3.1,4.6,74,0.00,CLR,,0.00,WeatherDisplay:10.37,2013-09-02 17:06:00,
2013-09-02 13:11:00,76.6,68.1,29.88,WSW,248,5.8,5.8,75,0.00,CLR,,0.00,WeatherDisplay:10.37,2013-09-02 17:11:00,
2013-09-02 13:16:00,77.2,68.2,29.88,West,270,2.8,6.9,74,0.00,CLR,,0.00,WeatherDisplay:10.37,2013-09-02 17:16:00,
2013-09-02 13:21:00,77.2,67.9,29.87,WSW,248,3.1,3.5,73,0.00,CLR,,0.00,WeatherDisplay:10.37,2013-09-02 17:21:00,
2013-09-02 13:26:00,77.9,68.5,29.87,WSW,248,3.4,5.8,73,0.00,CLR,,0.00,WeatherDisplay:10.37,2013-09-02 17:26:00,
2013-09-02 13:31:00,78.1,68.3,29.86,West,270,5.8,5.8,72,0.00,CLR,,0.00,WeatherDisplay:10.37,2013-09-02 17:31:00,
2013-09-02 13:36:00,78.3,68.1,29.86,WSW,248,7.3,7.3,71,0.00,CLR,,0.00,WeatherDisplay:10.37,2013-09-02 17:36:00,
2013-09-02 13:41:00,77.9,67.7,29.85,West,270,5.2,5.8,71,0.00,CLR,,0.00,WeatherDisplay:10.37,2013-09-02 17:41:00,
2013-09-02 13:46:00,78.1,68.7,29.85,West,270,3.1,3.5,73,0.00,CLR,,0.00,WeatherDisplay:10.37,2013-09-02 17:46:00,
2013-09-02 13:51:00,77.9,67.7,29.84,WSW,248,4.6,4.6,71,0.00,CLR,,0.00,WeatherDisplay:10.37,2013-09-02 17:51:00,
2013-09-02 13:56:00,78.3,68.1,29.84,NNW,338,4.6,4.6,71,0.00,CLR,,0.00,WeatherDisplay:10.37,2013-09-02 17:56:00,
2013-09-02 14:01:00,78.3,68.1,29.83,NNW,338,5.2,5.2,71,0.00,CLR,,0.00,WeatherDisplay:10.37,2013-09-02 18:01:00,
2013-09-02 14:06:00,78.4,68.3,29.83,WSW,248,2.8,5.8,71,0.00,CLR,,0.00,WeatherDisplay:10.37,2013-09-02 18:06:00,
2013-09-02 14:11:00,78.4,67.4,29.83,WNW,292,7.3,7.3,69,0.00,CLR,,0.00,WeatherDisplay:10.37,2013-09-02 18:11:00,
2013-09-02 14:16:00,78.4,67.4,29.83,West,270,5.8,5.8,69,0.00,CLR,,0.00,WeatherDisplay:10.37,2013-09-02 18:16:00,
2013-09-02 14:21:00,78.4,67.8,29.82,SSW,202,1.8,6.9,70,0.00,CLR,,0.00,WeatherDisplay:10.37,2013-09-02 18:21:00,
2013-09-02 14:26:00,78.4,67.8,29.82,SW,225,3.7,3.7,70,0.00,CLR,,0.00,WeatherDisplay:10.37,2013-09-02 18:26:00,
2013-09-02 14:31:00,78.6,67.6,29.82,NW,315,5.2,5.8,69,0.00,CLR,,0.00,WeatherDisplay:10.37,2013-09-02 18:31:00,
2013-09-02 14:36:00,78.6,67.6,29.82,WNW,292,6.7,6.9,69,0.00,CLR,,0.00,WeatherDisplay:10.37,2013-09-02 18:36:00,
2013-09-02 14:41:00,78.6,67.6,29.82,NW,315,7.0,7.0,69,0.00,CLR,,0.00,WeatherDisplay:10.37,2013-09-02 18:41:00,
2013-09-02 14:46:00,78.3,66.4,29.81,WSW,248,7.3,7.3,67,0.00,CLR,,0.00,WeatherDisplay:10.37,2013-09-02 18:46:00,
2013-09-02 14:51:00,78.1,66.7,29.81,WSW,248,4.6,4.6,68,0.00,CLR,,0.00,WeatherDisplay:10.37,2013-09-02 18:51:00,
2013-09-02 14:56:00,77.9,66.9,29.82,North,0,4.9,4.9,69,0.00,CLR,,0.00,WeatherDisplay:10.37,2013-09-02 18:56:00,
2013-09-02 15:01:00,78.3,67.3,29.83,NW,315,4.9,4.9,69,0.00,CLR,,0.00,WeatherDisplay:10.37,2013-09-02 19:01:00,
2013-09-02 15:06:00,78.4,67.4,29.82,North,0,4.3,4.3,69,0.00,CLR,,0.00,WeatherDisplay:10.37,2013-09-02 19:06:00,
2013-09-02 15:11:00,78.3,66.8,29.82,NNW,338,7.0,7.0,68,0.00,CLR,,0.00,WeatherDisplay:10.37,2013-09-02 19:11:00,
2013-09-02 15:16:00,78.1,66.7,29.82,NW,315,6.1,6.9,68,0.00,CLR,,0.00,WeatherDisplay:10.37,2013-09-02 19:16:00,
2013-09-02 15:21:00,77.7,67.2,29.83,West,270,2.4,2.4,70,0.00,CLR,,0.00,WeatherDisplay:10.37,2013-09-02 19:21:00,
2013-09-02 15:26:00,77.7,67.2,29.83,NW,315,5.2,5.2,70,0.00,CLR,,0.00,WeatherDisplay:10.37,2013-09-02 19:26:00,
2013-09-02 15:31:00,77.9,67.3,29.84,NW,315,0.6,5.8,70,0.00,CLR,,0.00,WeatherDisplay:10.37,2013-09-02 19:31:00,
2013-09-02 15:36:00,77.9,67.3,29.83,West,270,2.4,2.4,70,0.00,CLR,,0.00,WeatherDisplay:10.37,2013-09-02 19:36:00,
2013-09-02 15:41:00,77.7,67.2,29.82,WSW,248,2.5,2.5,70,0.00,CLR,,0.00,WeatherDisplay:10.37,2013-09-02 19:41:00,
2013-09-02 15:46:00,77.7,67.6,29.82,NNW,338,1.5,3.5,71,0.00,CLR,,0.00,WeatherDisplay:10.37,2013-09-02 19:46:00,
2013-09-02 15:51:00,77.7,67.2,29.82,WSW,248,1.5,1.5,70,0.00,CLR,,0.00,WeatherDisplay:10.37,2013-09-02 19:51:00,
2013-09-02 15:56:00,78.3,67.7,29.83,West,270,2.8,5.8,70,0.00,CLR,,0.00,WeatherDisplay:10.37,2013-09-02 19:56:00,
2013-09-02 16:01:00,78.6,67.2,29.83,WSW,248,5.2,5.2,68,0.00,CLR,,0.00,WeatherDisplay:10.37,2013-09-02 20:01:00,
2013-09-02 16:06:00,78.4,67.4,29.83,WSW,248,1.8,2.3,69,0.00,CLR,,0.00,WeatherDisplay:10.37,2013-09-02 20:06:00,
2013-09-02 16:11:00,78.6,67.6,29.83,WSW,248,4.3,4.6,69,0.00,CLR,,0.00,WeatherDisplay:10.37,2013-09-02 20:11:00,
2013-09-02 16:16:00,79.0,67.5,29.83,West,270,7.8,8.1,68,0.00,CLR,,0.00,WeatherDisplay:10.37,2013-09-02 20:16:00,
2013-09-02 16:21:00,78.8,67.3,29.82,WSW,248,4.3,4.6,68,0.00,CLR,,0.00,WeatherDisplay:10.37,2013-09-02 20:21:00,
2013-09-02 16:26:00,78.4,67.4,29.83,WSW,248,5.5,5.5,69,0.00,CLR,,0.00,WeatherDisplay:10.37,2013-09-02 20:26:00,
2013-09-02 16:31:00,78.4,67.4,29.83,WSW,248,3.1,3.5,69,0.00,CLR,,0.00,WeatherDisplay:10.37,2013-09-02 20:31:00,
2013-09-02 16:36:00,78.1,67.5,29.82,WSW,248,2.5,2.5,70,0.00,CLR,,0.00,WeatherDisplay:10.37,2013-09-02 20:36:00,
2013-09-02 16:41:00,78.3,67.7,29.82,West,270,7.0,7.0,70,0.00,CLR,,0.00,WeatherDisplay:10.37,2013-09-02 20:41:00,
2013-09-02 16:46:00,78.4,67.8,29.82,WNW,292,5.5,5.8,70,0.00,CLR,,0.00,WeatherDisplay:10.37,2013-09-02 20:46:00,
2013-09-02 16:51:00,78.6,68.4,29.82,WSW,248,1.5,2.3,71,0.00,CLR,,0.00,WeatherDisplay:10.37,2013-09-02 20:51:00,
2013-09-02 16:56:00,78.8,68.2,29.82,West,270,5.2,5.8,70,0.00,CLR,,0.00,WeatherDisplay:10.37,2013-09-02 20:56:00,
2013-09-02 17:01:00,78.4,67.8,29.82,NW,315,2.1,2.3,70,0.00,CLR,,0.00,WeatherDisplay:10.37,2013-09-02 21:01:00,
2013-09-02 17:06:00,78.4,68.3,29.82,North,0,3.7,5.8,71,0.00,CLR,,0.00,WeatherDisplay:10.37,2013-09-02 21:06:00,
2013-09-02 17:11:00,78.3,68.1,29.81,West,270,3.7,3.7,71,0.00,CLR,,0.00,WeatherDisplay:10.37,2013-09-02 21:11:00,
2013-09-02 17:16:00,78.4,68.3,29.80,NW,315,3.7,3.7,71,0.00,CLR,,0.00,WeatherDisplay:10.37,2013-09-02 21:16:00,
2013-09-02 17:21:00,78.4,67.8,29.80,WSW,248,1.5,4.6,70,0.00,CLR,,0.00,WeatherDisplay:10.37,2013-09-02 21:21:00,
2013-09-02 17:26:00,78.8,68.6,29.80,WNW,292,2.4,3.5,71,0.00,CLR,,0.00,WeatherDisplay:10.37,2013-09-02 21:26:00,
2013-09-02 17:31:00,78.8,68.6,29.81,NW,315,0.9,3.5,71,0.00,CLR,,0.00,WeatherDisplay:10.37,2013-09-02 21:31:00,
2013-09-02 17:36:00,78.4,68.3,29.81,West,270,6.1,6.1,71,0.00,CLR,,0.00,WeatherDisplay:10.37,2013-09-02 21:36:00,
2013-09-02 17:41:00,78.6,68.4,29.81,West,270,0.9,3.5,71,0.00,CLR,,0.00,WeatherDisplay:10.37,2013-09-02 21:41:00,
2013-09-02 17:46:00,78.8,68.6,29.80,WNW,292,2.5,5.8,71,0.00,CLR,,0.00,WeatherDisplay:10.37,2013-09-02 21:46:00,
2013-09-02 17:51:00,78.8,68.6,29.80,NNW,338,3.4,3.5,71,0.00,CLR,,0.00,WeatherDisplay:10.37,2013-09-02 21:51:00,
2013-09-02 17:56:00,78.6,68.0,29.81,West,270,7.0,7.0,70,0.00,CLR,,0.00,WeatherDisplay:10.37,2013-09-02 21:56:00,
2013-09-02 18:01:00,78.6,68.0,29.83,West,270,4.3,4.6,70,0.00,CLR,,0.00,WeatherDisplay:10.37,2013-09-02 22:01:00,
2013-09-02 18:06:00,78.1,67.9,29.83,NW,315,6.7,8.1,71,0.00,CLR,,0.00,WeatherDisplay:10.37,2013-09-02 22:06:00,
2013-09-02 18:11:00,77.7,67.6,29.84,NNW,338,3.7,6.9,71,0.00,CLR,,0.00,WeatherDisplay:10.37,2013-09-02 22:11:00,
2013-09-02 18:16:00,77.5,67.4,29.83,North,0,4.0,5.8,71,0.00,CLR,,0.00,WeatherDisplay:10.37,2013-09-02 22:16:00,
2013-09-02 18:21:00,77.4,67.2,29.81,WSW,248,6.1,6.1,71,0.00,CLR,,0.00,WeatherDisplay:10.37,2013-09-02 22:21:00,
2013-09-02 18:26:00,77.5,67.4,29.80,West,270,3.4,3.4,71,0.00,CLR,,0.00,WeatherDisplay:10.37,2013-09-02 22:26:00,
2013-09-02 18:31:00,77.4,67.2,29.80,West,270,3.4,3.5,71,0.00,CLR,,0.00,WeatherDisplay:10.37,2013-09-02 22:31:00,
2013-09-02 18:36:00,76.8,66.7,29.79,West,270,4.6,4.6,71,0.00,CLR,,0.00,WeatherDisplay:10.37,2013-09-02 22:36:00,
2013-09-02 18:41:00,76.3,66.6,29.79,WNW,292,1.2,2.3,72,0.00,CLR,,0.00,WeatherDisplay:10.37,2013-09-02 22:41:00,
2013-09-02 18:46:00,76.5,66.8,29.78,WNW,292,0.0,0.0,72,0.00,CLR,,0.00,WeatherDisplay:10.37,2013-09-02 22:46:00,
2013-09-02 18:51:00,75.7,66.5,29.79,NNW,338,2.4,2.4,73,0.00,CLR,,0.00,WeatherDisplay:10.37,2013-09-02 22:51:00,
2013-09-02 18:56:00,75.2,65.9,29.79,NW,315,1.5,2.3,73,0.00,CLR,,0.00,WeatherDisplay:10.37,2013-09-02 22:56:00,
2013-09-02 19:01:00,75.0,66.2,29.79,NW,315,0.0,0.0,74,0.00,CLR,,0.00,WeatherDisplay:10.37,2013-09-02 23:01:00,
2013-09-02 19:06:00,74.5,65.6,29.79,NW,315,0.0,0.0,74,0.00,CLR,,0.00,WeatherDisplay:10.37,2013-09-02 23:06:00,
2013-09-02 19:11:00,74.5,66.0,29.79,NW,315,0.0,0.0,75,0.00,CLR,,0.00,WeatherDisplay:10.37,2013-09-02 23:11:00,
2013-09-02 19:16:00,74.1,65.7,29.79,NW,315,0.0,0.0,75,0.00,CLR,,0.00,WeatherDisplay:10.37,2013-09-02 23:16:00,
2013-09-02 19:21:00,73.9,65.5,29.79,South,180,0.6,1.1,75,0.00,CLR,,0.00,WeatherDisplay:10.37,2013-09-02 23:21:00,
2013-09-02 19:26:00,73.6,65.2,29.79,South,180,0.0,0.0,75,0.00,CLR,,0.00,WeatherDisplay:10.37,2013-09-02 23:26:00,
2013-09-02 19:31:00,73.4,65.0,29.78,SSE,158,1.8,2.3,75,0.00,CLR,,0.00,WeatherDisplay:10.37,2013-09-02 23:31:00,
2013-09-02 19:36:00,73.0,65.0,29.78,SSE,158,0.0,1.1,76,0.00,CLR,,0.00,WeatherDisplay:10.37,2013-09-02 23:36:00,
2013-09-02 19:41:00,73.0,65.0,29.77,SSE,158,1.5,1.5,76,0.00,CLR,,0.00,WeatherDisplay:10.37,2013-09-02 23:41:00,
2013-09-02 19:46:00,72.9,64.8,29.78,SSE,158,0.0,0.0,76,0.00,CLR,,0.00,WeatherDisplay:10.37,2013-09-02 23:46:00,
2013-09-02 19:51:00,72.7,64.7,29.79,WSW,248,1.5,2.3,76,0.00,CLR,,0.00,WeatherDisplay:10.37,2013-09-02 23:51:00,
2013-09-02 19:56:00,72.5,64.5,29.80,West,270,2.5,2.5,76,0.00,CLR,,0.00,WeatherDisplay:10.37,2013-09-02 23:56:00,
2013-09-02 20:02:00,72.5,64.5,29.81,West,270,2.4,2.4,76,0.00,CLR,,0.00,WeatherDisplay:10.37,2013-09-03 00:02:00,
2013-09-02 20:07:00,72.5,64.9,29.81,West,270,2.5,2.5,77,0.00,CLR,,0.00,WeatherDisplay:10.37,2013-09-03 00:07:00,
2013-09-02 20:12:00,72.5,64.9,29.81,WSW,248,0.6,1.1,77,0.00,CLR,,0.00,WeatherDisplay:10.37,2013-09-03 00:12:00,
2013-09-02 20:17:00,72.3,64.7,29.80,West,270,0.0,2.3,77,0.00,CLR,,0.00,WeatherDisplay:10.37,2013-09-03 00:17:00,
2013-09-02 20:22:00,72.3,64.7,29.80,SW,225,0.9,1.1,77,0.00,CLR,,0.00,WeatherDisplay:10.37,2013-09-03 00:22:00,
2013-09-02 20:27:00,72.3,64.7,29.80,SSE,158,0.9,1.1,77,0.00,CLR,,0.00,WeatherDisplay:10.37,2013-09-03 00:27:00,
2013-09-02 20:32:00,72.1,64.2,29.80,South,180,0.3,2.3,76,0.00,CLR,,0.00,WeatherDisplay:10.37,2013-09-03 00:32:00,
2013-09-02 20:37:00,72.1,64.2,29.79,SE,135,0.6,3.5,76,0.00,CLR,,0.00,WeatherDisplay:10.37,2013-09-03 00:37:00,
2013-09-02 20:42:00,72.1,64.2,29.79,SE,135,0.6,1.1,76,0.00,CLR,,0.00,WeatherDisplay:10.37,2013-09-03 00:42:00,
2013-09-02 20:47:00,72.0,64.4,29.79,South,180,0.0,1.1,77,0.00,CLR,,0.00,WeatherDisplay:10.37,2013-09-03 00:47:00,
2013-09-02 20:52:00,71.8,64.2,29.80,South,180,0.3,0.3,77,0.00,CLR,,0.00,WeatherDisplay:10.37,2013-09-03 00:52:00,
2013-09-02 20:58:00,71.8,64.2,29.81,South,180,0.6,1.1,77,0.00,CLR,,0.00,WeatherDisplay:10.37,2013-09-03 00:58:00,
2013-09-02 21:03:00,71.8,64.2,29.81,SW,225,2.4,2.4,77,0.00,CLR,,0.00,WeatherDisplay:10.37,2013-09-03 01:03:00,
2013-09-02 21:08:00,71.2,64.4,29.82,NNE,22,0.9,0.0,79,0.00,CLR,,0.01,WeatherDisplay:10.37,2013-09-03 01:08:00,
2013-09-02 21:13:00,70.5,63.7,29.81,NE,45,2.4,2.4,79,0.01,RA,,0.01,WeatherDisplay:10.37,2013-09-03 01:13:00,
2013-09-02 21:18:00,69.8,62.6,29.82,ENE,68,1.5,1.5,78,0.01,RA,,0.01,WeatherDisplay:10.37,2013-09-03 01:18:00,
2013-09-02 21:23:00,68.4,61.6,29.84,NW,315,1.5,5.8,79,0.28,RA,,0.31,WeatherDisplay:10.37,2013-09-03 01:23:00,
2013-09-02 21:28:00,68.0,61.6,29.82,East,90,0.9,1.1,80,0.53,RA,,0.53,WeatherDisplay:10.37,2013-09-03 01:28:00,
2013-09-02 21:33:00,67.3,61.2,29.81,SE,135,0.9,2.3,81,0.98,RA,,0.98,WeatherDisplay:10.37,2013-09-03 01:33:00,
2013-09-02 21:38:00,67.1,61.4,29.82,SE,135,0.6,1.1,82,1.04,RA,,1.04,WeatherDisplay:10.37,2013-09-03 01:38:00,
2013-09-02 21:43:00,67.1,61.4,29.82,SSE,158,2.1,2.3,82,1.05,RA,,1.05,WeatherDisplay:10.37,2013-09-03 01:43:00,
2013-09-02 21:48:00,66.7,61.1,29.83,SSE,158,0.0,0.0,82,1.07,RA,,1.07,WeatherDisplay:10.37,2013-09-03 01:48:00,
2013-09-02 21:53:00,66.6,61.2,29.82,SE,135,1.8,2.3,83,1.07,RA,,1.07,WeatherDisplay:10.37,2013-09-03 01:53:00,
2013-09-02 21:58:00,66.6,61.2,29.82,SE,135,1.2,1.2,83,1.11,RA,,1.11,WeatherDisplay:10.37,2013-09-03 01:58:00,
2013-09-02 22:03:00,66.4,61.4,29.83,SE,135,0.0,0.0,84,1.13,RA,,1.13,WeatherDisplay:10.37,2013-09-03 02:03:00,
2013-09-02 22:08:00,66.4,61.4,29.84,SE,135,0.0,1.1,84,1.14,RA,,1.14,WeatherDisplay:10.37,2013-09-03 02:08:00,
2013-09-02 22:13:00,66.2,61.2,29.85,SE,135,0.0,0.0,84,1.14,RA,,1.16,WeatherDisplay:10.37,2013-09-03 02:13:00,
2013-09-02 22:18:00,66.2,61.2,29.85,SE,135,1.8,1.8,84,1.15,RA,,1.16,WeatherDisplay:10.37,2013-09-03 02:18:00,
2013-09-02 22:23:00,66.4,61.4,29.86,SE,135,2.1,2.3,84,0.89,RA,,1.16,WeatherDisplay:10.37,2013-09-03 02:23:00,
2013-09-02 22:28:00,66.4,61.4,29.87,SE,135,0.0,0.0,84,0.63,CLR,,1.16,WeatherDisplay:10.37,2013-09-03 02:28:00,
2013-09-02 22:33:00,66.4,61.7,29.87,SE,135,0.0,0.0,85,0.19,CLR,,1.16,WeatherDisplay:10.37,2013-09-03 02:33:00,
2013-09-02 22:38:00,66.4,61.7,29.88,SE,135,0.0,0.0,85,0.12,CLR,,1.16,WeatherDisplay:10.37,2013-09-03 02:38:00,
2013-09-02 22:43:00,66.4,61.7,29.88,SE,135,0.0,0.0,85,0.11,CLR,,1.16,WeatherDisplay:10.37,2013-09-03 02:43:00,
2013-09-02 22:48:00,66.4,61.7,29.87,SE,135,0.0,0.0,85,0.09,CLR,,1.16,WeatherDisplay:10.37,2013-09-03 02:48:00,
2013-09-02 22:53:00,66.2,61.6,29.88,WSW,248,0.0,0.0,85,0.09,CLR,,1.16,WeatherDisplay:10.37,2013-09-03 02:53:00,
2013-09-02 22:58:00,66.2,61.6,29.88,West,270,0.0,1.1,85,0.05,CLR,,1.16,WeatherDisplay:10.37,2013-09-03 02:58:00,
2013-09-02 23:03:00,66.2,61.6,29.88,West,270,0.0,0.0,85,0.03,CLR,,1.16,WeatherDisplay:10.37,2013-09-03 03:03:00,
2013-09-02 23:08:00,66.2,61.9,29.87,West,270,0.0,0.0,86,0.02,CLR,,1.16,WeatherDisplay:10.37,2013-09-03 03:08:00,
2013-09-02 23:13:00,66.2,61.9,29.86,SSW,202,0.3,1.1,86,0.01,CLR,,1.16,WeatherDisplay:10.37,2013-09-03 03:13:00,
2013-09-02 23:18:00,66.2,61.9,29.86,SSW,202,0.0,0.0,86,0.00,CLR,,1.16,WeatherDisplay:10.37,2013-09-03 03:18:00,
2013-09-02 23:23:00,66.2,61.9,29.86,SSW,202,0.0,0.0,86,0.00,CLR,,1.16,WeatherDisplay:10.37,2013-09-03 03:23:00,
2013-09-02 23:28:00,66.2,61.9,29.87,SW,225,0.0,0.0,86,0.00,CLR,,1.16,WeatherDisplay:10.37,2013-09-03 03:28:00,
2013-09-02 23:33:00,66.2,61.9,29.87,SW,225,0.3,0.3,86,0.00,CLR,,1.16,WeatherDisplay:10.37,2013-09-03 03:33:00,
2013-09-02 23:38:00,66.0,61.7,29.87,SW,225,0.0,0.0,86,0.00,CLR,,1.16,WeatherDisplay:10.37,2013-09-03 03:38:00,
2013-09-02 23:43:00,66.0,61.7,29.85,SW,225,0.6,1.1,86,0.00,CLR,,1.16,WeatherDisplay:10.37,2013-09-03 03:43:00,
2013-09-02 23:48:00,65.8,61.5,29.85,SW,225,0.0,0.0,86,0.00,CLR,,1.16,WeatherDisplay:10.37,2013-09-03 03:48:00,
2013-09-02 23:53:00,65.7,61.4,29.86,West,270,0.3,0.0,86,0.00,CLR,,1.16,WeatherDisplay:10.37,2013-09-03 03:53:00,
2013-09-02 23:58:00,65.5,61.2,29.87,West,270,0.6,1.1,86,0.00,CLR,,1.16,WeatherDisplay:10.37,2013-09-03 03:58:00,